createdAt,value
2018-10-21T00:00:21.503Z,1015.04
2018-10-21T00:01:21.491Z,1015.04
2018-10-21T00:02:21.495Z,1015.04
2018-10-21T00:03:21.469Z,1015.05
2018-10-21T00:04:21.460Z,1015.03
2018-10-21T00:05:21.447Z,1015.01
2018-10-21T00:06:21.440Z,1015.05
2018-10-21T00:07:21.427Z,1015.04
2018-10-21T00:08:21.414Z,1015.04
2018-10-21T00:09:21.404Z,1015.02
2018-10-21T00:10:21.394Z,1015.01
2018-10-21T00:11:21.383Z,1015.03
2018-10-21T00:12:21.372Z,1014.94
2018-10-21T00:13:21.360Z,1014.97
2018-10-21T00:14:21.351Z,1014.97
2018-10-21T00:15:21.404Z,1015.01
2018-10-21T00:16:21.331Z,1015.02
2018-10-21T00:17:21.319Z,1015.01
2018-10-21T00:18:21.308Z,1015.02
2018-10-21T00:19:21.296Z,1015.00
2018-10-21T00:20:21.286Z,1015.04
2018-10-21T00:21:21.274Z,1015.01
2018-10-21T00:22:21.263Z,1015.03
2018-10-21T00:23:21.252Z,1015.06
2018-10-21T00:24:21.242Z,1015.08
2018-10-21T00:25:21.230Z,1015.14
2018-10-21T00:26:21.219Z,1015.08
2018-10-21T00:27:21.208Z,1015.14
2018-10-21T00:28:21.199Z,1015.07
2018-10-21T00:29:21.187Z,1015.13
2018-10-21T00:30:21.176Z,1015.11
2018-10-21T00:31:21.166Z,1015.16
2018-10-21T00:32:21.155Z,1015.20
2018-10-21T00:33:21.144Z,1015.21
2018-10-21T00:34:21.134Z,1015.21
2018-10-21T00:35:21.124Z,1015.15
2018-10-21T00:36:21.111Z,1015.10
2018-10-21T00:37:21.103Z,1015.10
2018-10-21T00:38:21.091Z,1015.09
2018-10-21T00:39:21.078Z,1015.06
2018-10-21T00:40:21.070Z,1015.01
2018-10-21T00:41:21.056Z,1015.02
2018-10-21T00:42:21.046Z,1015.03
2018-10-21T00:43:21.037Z,1015.03
2018-10-21T00:44:21.030Z,1015.02
2018-10-21T00:45:21.013Z,1015.04
2018-10-21T00:46:21.003Z,1015.00
2018-10-21T00:47:20.994Z,1015.02
2018-10-21T00:48:20.982Z,1015.10
2018-10-21T00:49:20.971Z,1015.04
2018-10-21T00:50:20.960Z,1015.08
2018-10-21T00:51:20.949Z,1015.08
2018-10-21T00:52:20.941Z,1015.10
2018-10-21T00:53:20.929Z,1015.05
2018-10-21T00:54:20.916Z,1015.09
2018-10-21T00:55:20.907Z,1015.14
2018-10-21T00:56:20.896Z,1015.12
2018-10-21T00:57:20.884Z,1015.15
2018-10-21T00:58:20.875Z,1015.20
2018-10-21T00:59:20.864Z,1015.22
2018-10-21T01:00:20.850Z,1015.19
2018-10-21T01:01:20.841Z,1015.25
2018-10-21T01:02:20.829Z,1015.24
2018-10-21T01:03:20.820Z,1015.25
2018-10-21T01:04:20.808Z,1015.23
2018-10-21T01:05:20.797Z,1015.23
2018-10-21T01:06:20.787Z,1015.18
2018-10-21T01:07:20.779Z,1015.24
2018-10-21T01:08:20.765Z,1015.18
2018-10-21T01:09:20.755Z,1015.19
2018-10-21T01:10:20.749Z,1015.22
2018-10-21T01:11:20.737Z,1015.15
2018-10-21T01:12:20.720Z,1015.19
2018-10-21T01:13:20.712Z,1015.22
2018-10-21T01:14:20.701Z,1015.22
2018-10-21T01:15:20.691Z,1015.31
2018-10-21T01:16:20.680Z,1015.30
2018-10-21T01:17:20.669Z,1015.26
2018-10-21T01:18:20.658Z,1015.27
2018-10-21T01:19:20.648Z,1015.27
2018-10-21T01:20:20.635Z,1015.28
2018-10-21T01:21:20.624Z,1015.29
2018-10-21T01:22:20.615Z,1015.31
2018-10-21T01:23:20.602Z,1015.32
2018-10-21T01:24:20.594Z,1015.30
2018-10-21T01:25:20.582Z,1015.30
2018-10-21T01:26:20.570Z,1015.30
2018-10-21T01:27:20.563Z,1015.26
2018-10-21T01:28:20.548Z,1015.25
2018-10-21T01:29:20.538Z,1015.26
2018-10-21T01:30:20.528Z,1015.27
2018-10-21T01:31:20.515Z,1015.23
2018-10-21T01:32:20.505Z,1015.20
2018-10-21T01:33:20.495Z,1015.23
2018-10-21T01:34:20.486Z,1015.20
2018-10-21T01:35:20.473Z,1015.20
2018-10-21T01:36:20.704Z,1015.15
2018-10-21T01:37:20.467Z,1015.11
2018-10-21T01:38:20.489Z,1015.08
2018-10-21T01:39:20.432Z,1015.07
2018-10-21T01:40:20.419Z,1015.06
2018-10-21T01:41:20.407Z,1015.05
2018-10-21T01:42:20.400Z,1015.07
2018-10-21T01:43:20.488Z,1015.08
2018-10-21T01:44:20.377Z,1015.05
2018-10-21T01:45:20.370Z,1015.02
2018-10-21T01:46:20.358Z,1015.03
2018-10-21T01:47:20.344Z,1014.98
2018-10-21T01:48:20.337Z,1014.99
2018-10-21T01:49:20.322Z,1014.97
2018-10-21T01:50:20.315Z,1014.97
2018-10-21T01:51:20.305Z,1014.94
2018-10-21T01:52:20.325Z,1014.94
2018-10-21T01:53:20.283Z,1014.91
2018-10-21T01:54:20.266Z,1014.90
2018-10-21T01:55:20.258Z,1014.87
2018-10-21T01:56:20.245Z,1014.84
2018-10-21T01:57:20.243Z,1014.90
2018-10-21T01:58:20.226Z,1014.84
2018-10-21T01:59:20.216Z,1014.79
2018-10-21T02:00:20.204Z,1014.77
2018-10-21T02:01:20.194Z,1014.80
2018-10-21T02:02:20.181Z,1014.79
2018-10-21T02:03:20.172Z,1014.81
2018-10-21T02:04:20.159Z,1014.86
2018-10-21T02:05:20.148Z,1014.87
2018-10-21T02:06:20.139Z,1014.91
2018-10-21T02:07:20.127Z,1014.91
2018-10-21T02:08:20.119Z,1014.92
2018-10-21T02:09:20.107Z,1015.00
2018-10-21T02:10:20.096Z,1015.05
2018-10-21T02:11:20.082Z,1015.04
2018-10-21T02:12:20.074Z,1015.02
2018-10-21T02:13:20.062Z,1015.02
2018-10-21T02:14:20.055Z,1014.99
2018-10-21T02:15:20.041Z,1015.01
2018-10-21T02:16:20.029Z,1015.04
2018-10-21T02:17:20.021Z,1015.01
2018-10-21T02:18:20.015Z,1015.02
2018-10-21T02:19:19.998Z,1014.99
2018-10-21T02:20:19.986Z,1015.01
2018-10-21T02:21:19.977Z,1015.01
2018-10-21T02:22:19.968Z,1014.97
2018-10-21T02:23:19.956Z,1014.99
2018-10-21T02:24:19.945Z,1014.97
2018-10-21T02:25:19.935Z,1015.02
2018-10-21T02:26:19.992Z,1015.08
2018-10-21T02:27:19.943Z,1015.03
2018-10-21T02:28:19.923Z,1015.05
2018-10-21T02:29:19.891Z,1015.05
2018-10-21T02:30:19.880Z,1015.07
2018-10-21T02:31:19.867Z,1015.07
2018-10-21T02:32:19.856Z,1015.06
2018-10-21T02:33:19.919Z,1015.04
2018-10-21T02:34:19.836Z,1015.05
2018-10-21T02:35:19.827Z,1015.01
2018-10-21T02:36:19.819Z,1015.03
2018-10-21T02:37:19.807Z,1015.00
2018-10-21T02:38:19.794Z,1015.01
2018-10-21T02:39:19.796Z,1014.99
2018-10-21T02:40:19.774Z,1014.97
2018-10-21T02:41:19.762Z,1014.98
2018-10-21T02:42:19.749Z,1015.04
2018-10-21T02:43:19.740Z,1015.03
2018-10-21T02:44:19.737Z,1015.03
2018-10-21T02:45:19.811Z,1015.01
2018-10-21T02:46:19.706Z,1014.99
2018-10-21T02:47:19.696Z,1015.04
2018-10-21T02:48:19.683Z,1015.01
2018-10-21T02:49:19.675Z,1015.07
2018-10-21T02:50:19.662Z,1015.06
2018-10-21T02:51:19.713Z,1015.05
2018-10-21T02:52:19.642Z,1015.10
2018-10-21T02:53:19.635Z,1015.08
2018-10-21T02:54:19.620Z,1015.11
2018-10-21T02:55:19.609Z,1015.09
2018-10-21T02:56:19.598Z,1015.07
2018-10-21T02:57:19.630Z,1015.04
2018-10-21T02:58:19.581Z,1015.06
2018-10-21T02:59:19.565Z,1015.07
2018-10-21T03:00:19.557Z,1015.02
2018-10-21T03:01:19.549Z,1015.08
2018-10-21T03:02:19.535Z,1015.03
2018-10-21T03:03:19.524Z,1014.99
2018-10-21T03:04:19.511Z,1014.99
2018-10-21T03:05:19.501Z,1015.00
2018-10-21T03:06:19.489Z,1015.02
2018-10-21T03:07:19.479Z,1015.06
2018-10-21T03:08:19.468Z,1015.04
2018-10-21T03:09:19.523Z,1015.10
2018-10-21T03:10:19.446Z,1015.04
2018-10-21T03:11:19.434Z,1015.03
2018-10-21T03:12:19.426Z,1015.01
2018-10-21T03:13:19.417Z,1015.07
2018-10-21T03:14:19.404Z,1015.05
2018-10-21T03:15:19.394Z,1015.01
2018-10-21T03:16:19.381Z,1015.02
2018-10-21T03:17:19.371Z,1014.97
2018-10-21T03:18:19.526Z,1014.96
2018-10-21T03:19:19.351Z,1014.99
2018-10-21T03:20:19.392Z,1014.99
2018-10-21T03:21:19.433Z,1014.97
2018-10-21T03:22:19.319Z,1014.99
2018-10-21T03:23:19.307Z,1015.04
2018-10-21T03:24:19.297Z,1015.01
2018-10-21T03:25:19.287Z,1015.00
2018-10-21T03:26:19.278Z,1015.05
2018-10-21T03:27:19.377Z,1015.00
2018-10-21T03:28:19.254Z,1014.97
2018-10-21T03:29:19.242Z,1014.98
2018-10-21T03:30:19.231Z,1015.00
2018-10-21T03:31:19.224Z,1014.97
2018-10-21T03:32:19.228Z,1014.96
2018-10-21T03:33:19.579Z,1014.94
2018-10-21T03:34:19.190Z,1014.88
2018-10-21T03:35:19.177Z,1014.87
2018-10-21T03:36:19.166Z,1014.87
2018-10-21T03:37:19.157Z,1014.85
2018-10-21T03:38:19.147Z,1014.82
2018-10-21T03:39:19.137Z,1014.81
2018-10-21T03:40:19.252Z,1014.85
2018-10-21T03:41:19.114Z,1014.83
2018-10-21T03:42:19.105Z,1014.88
2018-10-21T03:43:19.097Z,1014.89
2018-10-21T03:44:19.084Z,1014.88
2018-10-21T03:45:19.075Z,1014.89
2018-10-21T03:46:19.095Z,1014.87
2018-10-21T03:47:19.048Z,1014.91
2018-10-21T03:48:19.047Z,1014.88
2018-10-21T03:49:19.027Z,1014.86
2018-10-21T03:50:19.016Z,1014.91
2018-10-21T03:51:19.008Z,1014.93
2018-10-21T03:52:19.102Z,1014.91
2018-10-21T03:53:18.983Z,1014.86
2018-10-21T03:54:18.978Z,1014.83
2018-10-21T03:55:18.960Z,1014.85
2018-10-21T03:56:18.953Z,1014.86
2018-10-21T03:57:18.944Z,1014.93
2018-10-21T03:58:18.929Z,1014.88
2018-10-21T03:59:18.917Z,1014.90
2018-10-21T04:00:18.909Z,1014.91
2018-10-21T04:01:18.898Z,1014.88
2018-10-21T04:02:18.891Z,1014.92
2018-10-21T04:03:18.873Z,1014.86
2018-10-21T04:04:18.949Z,1014.88
2018-10-21T04:05:18.859Z,1014.86
2018-10-21T04:06:18.843Z,1014.85
2018-10-21T04:07:18.835Z,1014.83
2018-10-21T04:08:18.822Z,1014.85
2018-10-21T04:09:18.809Z,1014.87
2018-10-21T04:10:18.800Z,1014.87
2018-10-21T04:11:18.790Z,1014.86
2018-10-21T04:12:18.780Z,1014.86
2018-10-21T04:13:18.769Z,1014.84
2018-10-21T04:14:18.756Z,1014.84
2018-10-21T04:15:18.750Z,1014.80
2018-10-21T04:16:18.850Z,1014.82
2018-10-21T04:17:18.726Z,1014.84
2018-10-21T04:18:18.712Z,1014.78
2018-10-21T04:19:18.703Z,1014.74
2018-10-21T04:20:18.692Z,1014.70
2018-10-21T04:21:18.683Z,1014.71
2018-10-21T04:22:18.673Z,1014.71
2018-10-21T04:23:18.707Z,1014.67
2018-10-21T04:24:18.649Z,1014.68
2018-10-21T04:25:18.638Z,1014.69
2018-10-21T04:26:18.635Z,1014.61
2018-10-21T04:27:18.617Z,1014.58
2018-10-21T04:28:18.722Z,1014.61
2018-10-21T04:29:18.594Z,1014.58
2018-10-21T04:30:18.584Z,1014.57
2018-10-21T04:31:18.575Z,1014.58
2018-10-21T04:32:18.562Z,1014.61
2018-10-21T04:33:18.554Z,1014.58
2018-10-21T04:34:18.541Z,1014.58
2018-10-21T04:35:18.556Z,1014.58
2018-10-21T04:36:18.521Z,1014.54
2018-10-21T04:37:18.509Z,1014.54
2018-10-21T04:38:18.498Z,1014.53
2018-10-21T04:39:18.487Z,1014.50
2018-10-21T04:40:18.510Z,1014.49
2018-10-21T04:41:18.468Z,1014.47
2018-10-21T04:42:18.457Z,1014.45
2018-10-21T04:43:18.446Z,1014.42
2018-10-21T04:44:18.437Z,1014.41
2018-10-21T04:45:18.425Z,1014.39
2018-10-21T04:46:18.414Z,1014.45
2018-10-21T04:47:18.403Z,1014.44
2018-10-21T04:48:18.390Z,1014.43
2018-10-21T04:49:18.381Z,1014.43
2018-10-21T04:50:18.369Z,1014.45
2018-10-21T04:51:18.359Z,1014.50
2018-10-21T04:52:18.375Z,1014.45
2018-10-21T04:53:18.338Z,1014.47
2018-10-21T04:54:18.326Z,1014.44
2018-10-21T04:55:18.316Z,1014.40
2018-10-21T04:56:18.304Z,1014.43
2018-10-21T04:57:18.294Z,1014.40
2018-10-21T04:58:18.284Z,1014.37
2018-10-21T04:59:18.273Z,1014.38
2018-10-21T05:00:18.260Z,1014.32
2018-10-21T05:01:18.252Z,1014.35
2018-10-21T05:02:18.240Z,1014.37
2018-10-21T05:03:18.227Z,1014.36
2018-10-21T05:04:18.220Z,1014.40
2018-10-21T05:05:18.208Z,1014.40
2018-10-21T05:06:18.196Z,1014.37
2018-10-21T05:07:18.198Z,1014.38
2018-10-21T05:08:18.177Z,1014.37
2018-10-21T05:09:18.164Z,1014.36
2018-10-21T05:10:18.256Z,1014.34
2018-10-21T05:11:18.145Z,1014.33
2018-10-21T05:12:18.132Z,1014.33
2018-10-21T05:13:18.125Z,1014.28
2018-10-21T05:14:18.109Z,1014.25
2018-10-21T05:15:18.284Z,1014.32
2018-10-21T05:16:18.123Z,1014.35
2018-10-21T05:17:18.080Z,1014.32
2018-10-21T05:18:18.068Z,1014.35
2018-10-21T05:19:18.058Z,1014.37
2018-10-21T05:20:18.048Z,1014.32
2018-10-21T05:21:18.035Z,1014.33
2018-10-21T05:22:18.130Z,1014.33
2018-10-21T05:23:18.014Z,1014.27
2018-10-21T05:24:18.006Z,1014.26
2018-10-21T05:25:17.994Z,1014.29
2018-10-21T05:26:17.980Z,1014.26
2018-10-21T05:27:17.970Z,1014.33
2018-10-21T05:28:17.979Z,1014.31
2018-10-21T05:29:17.951Z,1014.27
2018-10-21T05:30:17.939Z,1014.27
2018-10-21T05:31:17.926Z,1014.24
2018-10-21T05:32:17.917Z,1014.22
2018-10-21T05:33:17.909Z,1014.23
2018-10-21T05:34:17.902Z,1014.23
2018-10-21T05:35:17.886Z,1014.22
2018-10-21T05:36:17.873Z,1014.27
2018-10-21T05:37:17.863Z,1014.24
2018-10-21T05:38:17.854Z,1014.20
2018-10-21T05:39:17.844Z,1014.24
2018-10-21T05:40:17.905Z,1014.23
2018-10-21T05:41:17.823Z,1014.25
2018-10-21T05:42:17.810Z,1014.25
2018-10-21T05:43:17.801Z,1014.24
2018-10-21T05:44:17.788Z,1014.30
2018-10-21T05:45:17.779Z,1014.28
2018-10-21T05:46:17.772Z,1014.26
2018-10-21T05:47:17.794Z,1014.24
2018-10-21T05:48:17.745Z,1014.30
2018-10-21T05:49:17.735Z,1014.23
2018-10-21T05:50:17.728Z,1014.25
2018-10-21T05:51:17.715Z,1014.25
2018-10-21T05:52:17.704Z,1014.23
2018-10-21T05:53:17.691Z,1014.25
2018-10-21T05:54:17.680Z,1014.30
2018-10-21T05:55:17.669Z,1014.30
2018-10-21T05:56:17.662Z,1014.33
2018-10-21T05:57:17.647Z,1014.32
2018-10-21T05:58:17.692Z,1014.34
2018-10-21T05:59:17.631Z,1014.32
2018-10-21T06:00:17.617Z,1014.29
2018-10-21T06:01:17.606Z,1014.34
2018-10-21T06:02:17.593Z,1014.40
2018-10-21T06:03:17.584Z,1014.45
2018-10-21T06:04:17.676Z,1014.43
2018-10-21T06:05:17.561Z,1014.45
2018-10-21T06:06:17.551Z,1014.45
2018-10-21T06:07:17.541Z,1014.49
2018-10-21T06:08:17.531Z,1014.51
2018-10-21T06:09:17.527Z,1014.51
2018-10-21T06:10:17.605Z,1014.52
2018-10-21T06:11:17.498Z,1014.51
2018-10-21T06:12:17.487Z,1014.55
2018-10-21T06:13:17.477Z,1014.54
2018-10-21T06:14:17.466Z,1014.57
2018-10-21T06:15:17.455Z,1014.53
2018-10-21T06:16:17.548Z,1014.56
2018-10-21T06:17:17.435Z,1014.59
2018-10-21T06:18:17.425Z,1014.60
2018-10-21T06:19:17.412Z,1014.58
2018-10-21T06:20:17.399Z,1014.64
2018-10-21T06:21:17.389Z,1014.60
2018-10-21T06:22:17.430Z,1014.64
2018-10-21T06:23:17.369Z,1014.58
2018-10-21T06:24:17.360Z,1014.52
2018-10-21T06:25:17.346Z,1014.54
2018-10-21T06:26:17.336Z,1014.60
2018-10-21T06:27:17.325Z,1014.56
2018-10-21T06:28:17.314Z,1014.62
2018-10-21T06:29:17.306Z,1014.63
2018-10-21T06:30:17.293Z,1014.65
2018-10-21T06:31:17.282Z,1014.64
2018-10-21T06:32:17.276Z,1014.65
2018-10-21T06:33:17.348Z,1014.72
2018-10-21T06:34:17.250Z,1014.66
2018-10-21T06:35:17.240Z,1014.66
2018-10-21T06:36:17.232Z,1014.66
2018-10-21T06:37:17.217Z,1014.64
2018-10-21T06:38:17.207Z,1014.61
2018-10-21T06:39:17.355Z,1014.65
2018-10-21T06:40:17.186Z,1014.64
2018-10-21T06:41:17.174Z,1014.65
2018-10-21T06:42:17.167Z,1014.67
2018-10-21T06:43:17.154Z,1014.67
2018-10-21T06:44:17.143Z,1014.69
2018-10-21T06:45:17.263Z,1014.69
2018-10-21T06:46:17.122Z,1014.72
2018-10-21T06:47:17.111Z,1014.73
2018-10-21T06:48:17.119Z,1014.73
2018-10-21T06:49:17.088Z,1014.73
2018-10-21T06:50:17.125Z,1014.74
2018-10-21T06:51:17.187Z,1014.75
2018-10-21T06:52:17.057Z,1014.78
2018-10-21T06:53:17.044Z,1014.77
2018-10-21T06:54:17.033Z,1014.78
2018-10-21T06:55:17.023Z,1014.78
2018-10-21T06:56:17.086Z,1014.88
2018-10-21T06:57:17.144Z,1014.89
2018-10-21T06:58:16.991Z,1014.85
2018-10-21T06:59:16.980Z,1014.87
2018-10-21T07:00:16.969Z,1014.89
2018-10-21T07:01:16.956Z,1014.86
2018-10-21T07:02:16.946Z,1014.90
2018-10-21T07:03:16.937Z,1014.92
2018-10-21T07:04:16.954Z,1014.96
2018-10-21T07:05:16.917Z,1014.99
2018-10-21T07:06:16.914Z,1014.98
2018-10-21T07:07:16.890Z,1015.03
2018-10-21T07:08:16.886Z,1015.02
2018-10-21T07:09:16.871Z,1015.00
2018-10-21T07:10:16.935Z,1015.07
2018-10-21T07:11:16.851Z,1015.08
2018-10-21T07:12:16.837Z,1015.06
2018-10-21T07:13:16.830Z,1015.08
2018-10-21T07:14:16.816Z,1015.08
2018-10-21T07:15:16.873Z,1015.10
2018-10-21T07:16:16.978Z,1015.09
2018-10-21T07:17:16.784Z,1015.15
2018-10-21T07:18:16.777Z,1015.10
2018-10-21T07:19:16.763Z,1015.09
2018-10-21T07:20:16.755Z,1015.14
2018-10-21T07:21:16.751Z,1015.14
2018-10-21T07:22:16.789Z,1015.18
2018-10-21T07:23:16.719Z,1015.15
2018-10-21T07:24:16.710Z,1015.12
2018-10-21T07:25:16.700Z,1015.21
2018-10-21T07:26:16.688Z,1015.18
2018-10-21T07:27:16.676Z,1015.25
2018-10-21T07:28:16.823Z,1015.22
2018-10-21T07:29:16.656Z,1015.24
2018-10-21T07:30:16.645Z,1015.23
2018-10-21T07:31:16.631Z,1015.28
2018-10-21T07:32:16.624Z,1015.25
2018-10-21T07:33:16.611Z,1015.24
2018-10-21T07:34:16.668Z,1015.23
2018-10-21T07:35:16.642Z,1015.20
2018-10-21T07:36:16.611Z,1015.24
2018-10-21T07:37:16.567Z,1015.18
2018-10-21T07:38:16.557Z,1015.23
2018-10-21T07:39:16.551Z,1015.16
2018-10-21T07:40:16.632Z,1015.17
2018-10-21T07:41:16.528Z,1015.13
2018-10-21T07:42:16.514Z,1015.17
2018-10-21T07:43:16.505Z,1015.18
2018-10-21T07:44:16.501Z,1015.17
2018-10-21T07:45:16.483Z,1015.16
2018-10-21T07:46:16.551Z,1015.14
2018-10-21T07:47:16.470Z,1015.16
2018-10-21T07:48:16.461Z,1015.18
2018-10-21T07:49:16.513Z,1015.19
2018-10-21T07:50:16.428Z,1015.14
2018-10-21T07:51:16.416Z,1015.15
2018-10-21T07:52:16.471Z,1015.16
2018-10-21T07:53:16.399Z,1015.12
2018-10-21T07:54:16.392Z,1015.16
2018-10-21T07:55:16.491Z,1015.15
2018-10-21T07:56:16.365Z,1015.16
2018-10-21T07:57:16.354Z,1015.13
2018-10-21T07:58:16.469Z,1015.12
2018-10-21T07:59:16.329Z,1015.11
2018-10-21T08:00:16.321Z,1015.12
2018-10-21T08:01:16.337Z,1015.09
2018-10-21T08:02:16.301Z,1015.13
2018-10-21T08:03:16.287Z,1015.07
2018-10-21T08:04:16.335Z,1015.10
2018-10-21T08:05:16.272Z,1015.10
2018-10-21T08:06:16.254Z,1015.08
2018-10-21T08:07:16.244Z,1015.04
2018-10-21T08:08:16.234Z,1015.00
2018-10-21T08:09:16.224Z,1015.02
2018-10-21T08:10:16.338Z,1014.99
2018-10-21T08:11:16.202Z,1014.98
2018-10-21T08:12:16.190Z,1015.01
2018-10-21T08:13:16.180Z,1014.99
2018-10-21T08:14:16.172Z,1014.96
2018-10-21T08:15:16.271Z,1015.00
2018-10-21T08:16:16.319Z,1015.01
2018-10-21T08:17:16.138Z,1015.02
2018-10-21T08:18:16.126Z,1014.98
2018-10-21T08:19:16.114Z,1015.00
2018-10-21T08:20:16.103Z,1014.98
2018-10-21T08:21:16.110Z,1014.97
2018-10-21T08:22:16.192Z,1015.03
2018-10-21T08:23:16.069Z,1015.03
2018-10-21T08:24:16.065Z,1015.00
2018-10-21T08:25:16.051Z,1015.00
2018-10-21T08:26:16.040Z,1015.04
2018-10-21T08:27:16.087Z,1015.04
2018-10-21T08:28:16.087Z,1014.98
2018-10-21T08:29:16.006Z,1014.99
2018-10-21T08:30:15.994Z,1014.90
2018-10-21T08:31:15.986Z,1014.95
2018-10-21T08:32:15.974Z,1015.00
2018-10-21T08:33:15.965Z,1014.95
2018-10-21T08:34:15.986Z,1014.95
2018-10-21T08:35:15.953Z,1014.94
2018-10-21T08:36:15.931Z,1015.03
2018-10-21T08:37:15.919Z,1014.93
2018-10-21T08:38:15.909Z,1014.94
2018-10-21T08:39:15.898Z,1014.95
2018-10-21T08:40:15.986Z,1015.00
2018-10-21T08:41:15.877Z,1014.95
2018-10-21T08:42:15.864Z,1014.89
2018-10-21T08:43:15.856Z,1014.92
2018-10-21T08:44:15.843Z,1014.95
2018-10-21T08:45:15.832Z,1014.94
2018-10-21T08:46:15.988Z,1014.91
2018-10-21T08:47:15.812Z,1014.91
2018-10-21T08:48:15.799Z,1014.90
2018-10-21T08:49:15.879Z,1014.93
2018-10-21T08:50:15.780Z,1014.92
2018-10-21T08:51:15.766Z,1015.00
2018-10-21T08:52:15.801Z,1014.96
2018-10-21T08:53:15.747Z,1014.96
2018-10-21T08:54:15.732Z,1014.95
2018-10-21T08:55:15.871Z,1014.91
2018-10-21T08:56:15.717Z,1014.94
2018-10-21T08:57:15.705Z,1014.93
2018-10-21T08:58:15.800Z,1014.92
2018-10-21T08:59:15.681Z,1014.92
2018-10-21T09:00:15.670Z,1014.87
2018-10-21T09:01:15.798Z,1014.83
2018-10-21T09:02:15.648Z,1014.83
2018-10-21T09:03:15.636Z,1014.87
2018-10-21T09:04:15.799Z,1014.86
2018-10-21T09:05:15.623Z,1014.82
2018-10-21T09:06:15.605Z,1014.76
2018-10-21T09:07:15.739Z,1014.77
2018-10-21T09:08:15.584Z,1014.72
2018-10-21T09:09:15.572Z,1014.73
2018-10-21T09:10:15.742Z,1014.72
2018-10-21T09:11:15.552Z,1014.64
2018-10-21T09:12:15.540Z,1014.68
2018-10-21T09:13:15.603Z,1014.66
2018-10-21T09:14:15.519Z,1014.63
2018-10-21T09:15:15.576Z,1014.59
2018-10-21T09:16:15.675Z,1014.55
2018-10-21T09:17:15.485Z,1014.63
2018-10-21T09:18:15.473Z,1014.64
2018-10-21T09:19:15.553Z,1014.63
2018-10-21T09:20:15.451Z,1014.62
2018-10-21T09:21:15.439Z,1014.68
2018-10-21T09:22:15.480Z,1014.63
2018-10-21T09:23:15.422Z,1014.60
2018-10-21T09:24:15.413Z,1014.60
2018-10-21T09:25:15.446Z,1014.58
2018-10-21T09:26:15.388Z,1014.52
2018-10-21T09:27:15.374Z,1014.49
2018-10-21T09:28:15.539Z,1014.49
2018-10-21T09:29:15.353Z,1014.50
2018-10-21T09:30:15.344Z,1014.48
2018-10-21T09:31:15.387Z,1014.44
2018-10-21T09:32:15.323Z,1014.45
2018-10-21T09:33:15.355Z,1014.46
2018-10-21T09:34:15.395Z,1014.47
2018-10-21T09:35:15.289Z,1014.45
2018-10-21T09:36:15.283Z,1014.44
2018-10-21T09:37:15.369Z,1014.42
2018-10-21T09:38:15.258Z,1014.43
2018-10-21T09:39:15.249Z,1014.42
2018-10-21T09:40:15.279Z,1014.37
2018-10-21T09:41:15.224Z,1014.31
2018-10-21T09:42:15.313Z,1014.33
2018-10-21T09:43:15.374Z,1014.29
2018-10-21T09:44:15.193Z,1014.35
2018-10-21T09:45:15.179Z,1014.24
2018-10-21T09:46:15.251Z,1014.22
2018-10-21T09:47:15.158Z,1014.20
2018-10-21T09:48:15.148Z,1014.22
2018-10-21T09:49:15.219Z,1014.20
2018-10-21T09:50:15.128Z,1014.21
2018-10-21T09:51:15.114Z,1014.18
2018-10-21T09:52:15.183Z,1014.23
2018-10-21T09:53:15.095Z,1014.19
2018-10-21T09:54:15.084Z,1014.15
2018-10-21T09:55:15.158Z,1014.22
2018-10-21T09:56:15.062Z,1014.20
2018-10-21T09:57:15.051Z,1014.18
2018-10-21T09:58:15.144Z,1014.21
2018-10-21T09:59:15.073Z,1014.15
2018-10-21T10:00:15.020Z,1014.20
2018-10-21T10:01:15.100Z,1014.16
2018-10-21T10:02:14.996Z,1014.16
2018-10-21T10:03:14.985Z,1014.15
2018-10-21T10:04:15.026Z,1014.12
2018-10-21T10:05:15.013Z,1014.08
2018-10-21T10:06:14.952Z,1014.13
2018-10-21T10:07:15.181Z,1014.10
2018-10-21T10:08:14.933Z,1014.04
2018-10-21T10:09:14.919Z,1014.06
2018-10-21T10:10:14.969Z,1014.07
2018-10-21T10:11:14.898Z,1014.04
2018-10-21T10:12:14.888Z,1014.03
2018-10-21T10:13:14.996Z,1014.07
2018-10-21T10:14:14.866Z,1014.03
2018-10-21T10:15:14.854Z,1013.96
2018-10-21T10:16:14.971Z,1013.96
2018-10-21T10:17:14.837Z,1013.98
2018-10-21T10:18:14.821Z,1013.99
2018-10-21T10:19:14.885Z,1013.98
2018-10-21T10:20:14.802Z,1013.90
2018-10-21T10:21:14.789Z,1013.91
2018-10-21T10:22:14.878Z,1013.86
2018-10-21T10:23:14.831Z,1013.85
2018-10-21T10:24:14.757Z,1013.89
2018-10-21T10:25:14.841Z,1013.82
2018-10-21T10:26:14.735Z,1013.82
2018-10-21T10:27:14.724Z,1013.83
2018-10-21T10:28:14.821Z,1013.84
2018-10-21T10:29:14.701Z,1013.84
2018-10-21T10:30:14.710Z,1013.87
2018-10-21T10:31:14.762Z,1013.86
2018-10-21T10:32:14.669Z,1013.86
2018-10-21T10:33:14.658Z,1013.87
2018-10-21T10:34:14.694Z,1013.80
2018-10-21T10:35:14.637Z,1013.81
2018-10-21T10:36:14.726Z,1013.79
2018-10-21T10:37:14.692Z,1013.75
2018-10-21T10:38:14.604Z,1013.75
2018-10-21T10:39:14.592Z,1013.71
2018-10-21T10:40:14.756Z,1013.70
2018-10-21T10:41:14.573Z,1013.69
2018-10-21T10:42:14.607Z,1013.67
2018-10-21T10:43:14.587Z,1013.72
2018-10-21T10:44:14.539Z,1013.68
2018-10-21T10:45:14.528Z,1013.64
2018-10-21T10:46:14.598Z,1013.61
2018-10-21T10:47:14.506Z,1013.61
2018-10-21T10:48:14.499Z,1013.57
2018-10-21T10:49:14.667Z,1013.56
2018-10-21T10:50:14.480Z,1013.52
2018-10-21T10:51:14.469Z,1013.51
2018-10-21T10:52:14.529Z,1013.54
2018-10-21T10:53:14.445Z,1013.51
2018-10-21T10:54:14.437Z,1013.51
2018-10-21T10:55:14.537Z,1013.51
2018-10-21T10:56:14.411Z,1013.49
2018-10-21T10:57:14.401Z,1013.47
2018-10-21T10:58:14.433Z,1013.46
2018-10-21T10:59:14.378Z,1013.43
2018-10-21T11:00:14.439Z,1013.48
2018-10-21T11:01:14.432Z,1013.46
2018-10-21T11:02:14.347Z,1013.40
2018-10-21T11:03:14.334Z,1013.41
2018-10-21T11:04:14.440Z,1013.41
2018-10-21T11:05:14.324Z,1013.36
2018-10-21T11:06:14.319Z,1013.32
2018-10-21T11:07:14.357Z,1013.35
2018-10-21T11:08:14.282Z,1013.36
2018-10-21T11:09:14.270Z,1013.31
2018-10-21T11:10:14.308Z,1013.35
2018-10-21T11:11:14.250Z,1013.33
2018-10-21T11:12:14.240Z,1013.33
2018-10-21T11:13:14.288Z,1013.35
2018-10-21T11:14:14.216Z,1013.25
2018-10-21T11:15:14.208Z,1013.28
2018-10-21T11:16:14.251Z,1013.27
2018-10-21T11:17:14.185Z,1013.28
2018-10-21T11:18:14.174Z,1013.27
2018-10-21T11:19:14.241Z,1013.19
2018-10-21T11:20:14.152Z,1013.17
2018-10-21T11:21:14.143Z,1013.18
2018-10-21T11:22:14.161Z,1013.14
2018-10-21T11:23:14.121Z,1013.14
2018-10-21T11:24:14.108Z,1013.15
2018-10-21T11:25:14.166Z,1013.11
2018-10-21T11:26:14.088Z,1013.13
2018-10-21T11:27:14.084Z,1013.08
2018-10-21T11:28:14.199Z,1013.13
2018-10-21T11:29:14.059Z,1013.06
2018-10-21T11:30:14.043Z,1013.03
2018-10-21T11:31:14.119Z,1012.99
2018-10-21T11:32:14.021Z,1012.96
2018-10-21T11:33:14.013Z,1012.94
2018-10-21T11:34:14.095Z,1012.96
2018-10-21T11:35:13.992Z,1012.95
2018-10-21T11:36:13.980Z,1012.95
2018-10-21T11:37:14.107Z,1012.91
2018-10-21T11:38:13.956Z,1012.92
2018-10-21T11:39:13.946Z,1012.88
2018-10-21T11:40:13.992Z,1012.89
2018-10-21T11:41:13.927Z,1012.90
2018-10-21T11:42:13.915Z,1012.93
2018-10-21T11:43:13.991Z,1012.95
2018-10-21T11:44:13.897Z,1012.92
2018-10-21T11:45:13.885Z,1012.90
2018-10-21T11:46:13.883Z,1012.92
2018-10-21T11:47:13.862Z,1012.88
2018-10-21T11:48:13.851Z,1012.86
2018-10-21T11:49:14.016Z,1012.83
2018-10-21T11:50:13.828Z,1012.83
2018-10-21T11:51:13.816Z,1012.82
2018-10-21T11:52:13.941Z,1012.83
2018-10-21T11:53:13.797Z,1012.75
2018-10-21T11:54:13.787Z,1012.74
2018-10-21T11:55:13.848Z,1012.69
2018-10-21T11:56:13.765Z,1012.70
2018-10-21T11:57:13.755Z,1012.68
2018-10-21T11:58:13.844Z,1012.69
2018-10-21T11:59:13.731Z,1012.72
2018-10-21T12:00:13.721Z,1012.63
2018-10-21T12:01:13.839Z,1012.68
2018-10-21T12:02:13.698Z,1012.61
2018-10-21T12:03:13.690Z,1012.62
2018-10-21T12:04:13.723Z,1012.60
2018-10-21T12:05:13.670Z,1012.61